sensor_id;sensor_type;location;lat;lon;timestamp;pressure;altitude;pressure_sealevel;temperature;humidity
55010;BME280;40903;51.638;7.528;2023-10-08T00:01:19;101557.97;;;18.21;99.91
55010;BME280;40903;51.638;7.528;2023-10-08T00:03:46;101563.81;;;18.20;100.00
55010;BME280;40903;51.638;7.528;2023-10-08T00:06:16;101572.75;;;18.17;100.00
55010;BME280;40903;51.638;7.528;2023-10-08T00:08:44;101570.63;;;18.14;100.00
55010;BME280;40903;51.638;7.528;2023-10-08T00:11:13;101568.16;;;18.12;100.00
55010;BME280;40903;51.638;7.528;2023-10-08T00:13:41;101571.41;;;18.14;100.00
55010;BME280;40903;51.638;7.528;2023-10-08T00:16:12;101568.16;;;18.12;100.00
55010;BME280;40903;51.638;7.528;2023-10-08T00:18:42;101574.53;;;18.13;100.00
55010;BME280;40903;51.638;7.528;2023-10-08T00:21:15;101594.97;;;18.12;100.00
55010;BME280;40903;51.638;7.528;2023-10-08T00:23:40;101594.97;;;18.12;100.00
55010;BME280;40903;51.638;7.528;2023-10-08T00:26:10;101596.13;;;18.11;100.00
55010;BME280;40903;51.638;7.528;2023-10-08T00:28:36;101589.28;;;18.08;100.00
55010;BME280;40903;51.638;7.528;2023-10-08T00:31:01;101595.59;;;18.09;100.00
55010;BME280;40903;51.638;7.528;2023-10-08T00:33:53;101603.38;;;18.07;100.00
55010;BME280;40903;51.638;7.528;2023-10-08T00:36:18;101609.53;;;18.04;100.00
55010;BME280;40903;51.638;7.528;2023-10-08T00:38:47;101608.75;;;18.03;100.00
55010;BME280;40903;51.638;7.528;2023-10-08T00:41:23;101605.81;;;18.00;100.00
55010;BME280;40903;51.638;7.528;2023-10-08T00:43:54;101612.75;;;17.97;100.00
55010;BME280;40903;51.638;7.528;2023-10-08T00:46:23;101618.63;;;17.96;100.00
55010;BME280;40903;51.638;7.528;2023-10-08T00:48:53;101626.56;;;17.97;100.00
55010;BME280;40903;51.638;7.528;2023-10-08T00:51:25;101623.00;;;17.97;100.00
55010;BME280;40903;51.638;7.528;2023-10-08T00:54:02;101615.34;;;17.94;100.00
55010;BME280;40903;51.638;7.528;2023-10-08T00:56:33;101617.59;;;17.92;100.00
55010;BME280;40903;51.638;7.528;2023-10-08T00:59:10;101612.41;;;17.90;100.00
55010;BME280;40903;51.638;7.528;2023-10-08T01:01:39;101600.06;;;17.88;100.00
55010;BME280;40903;51.638;7.528;2023-10-08T01:04:06;101611.09;;;17.88;100.00
55010;BME280;40903;51.638;7.528;2023-10-08T01:06:38;101612.72;;;17.89;100.00
55010;BME280;40903;51.638;7.528;2023-10-08T01:09:05;101620.22;;;17.88;100.00
55010;BME280;40903;51.638;7.528;2023-10-08T01:11:42;101630.09;;;17.89;100.00
55010;BME280;40903;51.638;7.528;2023-10-08T01:14:11;101635.63;;;17.89;100.00
55010;BME280;40903;51.638;7.528;2023-10-08T01:16:36;101638.38;;;17.89;100.00
55010;BME280;40903;51.638;7.528;2023-10-08T01:19:04;101641.94;;;17.90;100.00
55010;BME280;40903;51.638;7.528;2023-10-08T01:21:30;101652.19;;;17.89;100.00
55010;BME280;40903;51.638;7.528;2023-10-08T01:24:05;101656.88;;;17.89;100.00
55010;BME280;40903;51.638;7.528;2023-10-08T01:26:35;101645.53;;;17.90;100.00
55010;BME280;40903;51.638;7.528;2023-10-08T01:29:04;101666.78;;;17.90;100.00
55010;BME280;40903;51.638;7.528;2023-10-08T01:31:32;101664.03;;;17.90;100.00
55010;BME280;40903;51.638;7.528;2023-10-08T01:33:58;101660.13;;;17.91;100.00
55010;BME280;40903;51.638;7.528;2023-10-08T01:36:24;101669.72;;;17.93;100.00
55010;BME280;40903;51.638;7.528;2023-10-08T01:38:51;101664.22;;;17.93;100.00
55010;BME280;40903;51.638;7.528;2023-10-08T01:41:17;101656.72;;;17.94;100.00
55010;BME280;40903;51.638;7.528;2023-10-08T01:43:56;101639.03;;;17.95;100.00
55010;BME280;40903;51.638;7.528;2023-10-08T01:46:24;101650.09;;;17.95;100.00
55010;BME280;40903;51.638;7.528;2023-10-08T01:48:51;101638.75;;;17.96;100.00
55010;BME280;40903;51.638;7.528;2023-10-08T01:51:21;101650.59;;;17.97;100.00
55010;BME280;40903;51.638;7.528;2023-10-08T01:54:02;101661.13;;;17.95;100.00
55010;BME280;40903;51.638;7.528;2023-10-08T01:56:29;101657.56;;;17.94;100.00
55010;BME280;40903;51.638;7.528;2023-10-08T01:58:55;101661.13;;;17.95;100.00
55010;BME280;40903;51.638;7.528;2023-10-08T02:01:21;101656.72;;;17.94;100.00
55010;BME280;40903;51.638;7.528;2023-10-08T02:03:46;101650.91;;;17.95;100.00
55010;BME280;40903;51.638;7.528;2023-10-08T02:06:11;101656.13;;;17.97;100.00
55010;BME280;40903;51.638;7.528;2023-10-08T02:08:37;101643.13;;;17.97;100.00
55010;BME280;40903;51.638;7.528;2023-10-08T02:11:03;101652.72;;;18.00;100.00
55010;BME280;40903;51.638;7.528;2023-10-08T02:13:29;101670.41;;;17.99;100.00
55010;BME280;40903;51.638;7.528;2023-10-08T02:15:55;101653.84;;;17.99;100.00
55010;BME280;40903;51.638;7.528;2023-10-08T02:18:22;101644.75;;;17.98;100.00
55010;BME280;40903;51.638;7.528;2023-10-08T02:20:48;101624.63;;;17.98;100.00
55010;BME280;40903;51.638;7.528;2023-10-08T02:23:14;101637.94;;;17.96;100.00
55010;BME280;40903;51.638;7.528;2023-10-08T02:25:39;101600.75;;;17.93;100.00
55010;BME280;40903;51.638;7.528;2023-10-08T02:28:06;101566.28;;;17.91;100.00
55010;BME280;40903;51.638;7.528;2023-10-08T02:30:34;101540.97;;;17.89;100.00
55010;BME280;40903;51.638;7.528;2023-10-08T02:32:59;101561.91;;;17.90;100.00
55010;BME280;40903;51.638;7.528;2023-10-08T02:35:25;101585.75;;;17.86;100.00
55010;BME280;40903;51.638;7.528;2023-10-08T02:37:50;101600.38;;;17.86;100.00
55010;BME280;40903;51.638;7.528;2023-10-08T02:40:15;101597.09;;;17.84;100.00
55010;BME280;40903;51.638;7.528;2023-10-08T02:43:01;101629.09;;;17.85;100.00
55010;BME280;40903;51.638;7.528;2023-10-08T02:45:27;101643.72;;;17.86;100.00
55010;BME280;40903;51.638;7.528;2023-10-08T02:47:54;101642.41;;;17.83;100.00
55010;BME280;40903;51.638;7.528;2023-10-08T02:50:20;101650.38;;;17.85;100.00
55010;BME280;40903;51.638;7.528;2023-10-08T02:52:48;101637.72;;;17.84;100.00
55010;BME280;40903;51.638;7.528;2023-10-08T02:55:15;101628.09;;;17.82;100.00
55010;BME280;40903;51.638;7.528;2023-10-08T02:58:02;101639.47;;;17.80;100.00
55010;BME280;40903;51.638;7.528;2023-10-08T03:00:28;101626.78;;;17.79;100.00
55010;BME280;40903;51.638;7.528;2023-10-08T03:03:01;101627.13;;;17.78;100.00
55010;BME280;40903;51.638;7.528;2023-10-08T03:05:34;101656.63;;;17.77;100.00
55010;BME280;40903;51.638;7.528;2023-10-08T03:08:02;101689.75;;;17.77;100.00
55010;BME280;40903;51.638;7.528;2023-10-08T03:10:27;101691.91;;;17.80;100.00
55010;BME280;40903;51.638;7.528;2023-10-08T03:12:58;101704.69;;;17.76;100.00
55010;BME280;40903;51.638;7.528;2023-10-08T03:15:31;101698.84;;;17.78;100.00
55010;BME280;40903;51.638;7.528;2023-10-08T03:18:05;101696.41;;;17.76;100.00
55010;BME280;40903;51.638;7.528;2023-10-08T03:20:40;101692.00;;;17.75;100.00
55010;BME280;40903;51.638;7.528;2023-10-08T03:23:12;101667.00;;;17.72;100.00
55010;BME280;40903;51.638;7.528;2023-10-08T03:25:53;101668.94;;;17.71;100.00
55010;BME280;40903;51.638;7.528;2023-10-08T03:28:24;101670.06;;;17.70;100.00
55010;BME280;40903;51.638;7.528;2023-10-08T03:30:56;101682.25;;;17.69;100.00
55010;BME280;40903;51.638;7.528;2023-10-08T03:33:35;101674.75;;;17.70;100.00
55010;BME280;40903;51.638;7.528;2023-10-08T03:36:03;101647.50;;;17.68;100.00
55010;BME280;40903;51.638;7.528;2023-10-08T03:38:48;101668.75;;;17.68;100.00
55010;BME280;40903;51.638;7.528;2023-10-08T03:41:26;101658.84;;;17.67;100.00
55010;BME280;40903;51.638;7.528;2023-10-08T03:43:55;101662.25;;;17.64;100.00
55010;BME280;40903;51.638;7.528;2023-10-08T03:46:29;101657.03;;;17.62;100.00
55010;BME280;40903;51.638;7.528;2023-10-08T03:48:54;101641.94;;;17.60;100.00
55010;BME280;40903;51.638;7.528;2023-10-08T03:51:22;101634.47;;;17.60;100.00
55010;BME280;40903;51.638;7.528;2023-10-08T03:53:51;101626.19;;;17.60;100.00
55010;BME280;40903;51.638;7.528;2023-10-08T03:56:34;101648.38;;;17.55;100.00
55010;BME280;40903;51.638;7.528;2023-10-08T03:59:04;101681.00;;;17.53;100.00
55010;BME280;40903;51.638;7.528;2023-10-08T04:01:39;101659.22;;;17.52;100.00
55010;BME280;40903;51.638;7.528;2023-10-08T04:04:06;101666.19;;;17.49;100.00
55010;BME280;40903;51.638;7.528;2023-10-08T04:06:38;101672.81;;;17.48;100.00
55010;BME280;40903;51.638;7.528;2023-10-08T04:09:05;101669.25;;;17.48;100.00
55010;BME280;40903;51.638;7.528;2023-10-08T04:11:30;101675.09;;;17.46;100.00
55010;BME280;40903;51.638;7.528;2023-10-08T04:14:00;101678.97;;;17.45;100.00
55010;BME280;40903;51.638;7.528;2023-10-08T04:16:31;101687.56;;;17.44;100.00
55010;BME280;40903;51.638;7.528;2023-10-08T04:19:02;101680.44;;;17.43;100.00
55010;BME280;40903;51.638;7.528;2023-10-08T04:21:30;101684.28;;;17.42;100.00
55010;BME280;40903;51.638;7.528;2023-10-08T04:23:58;101684.63;;;17.40;100.00
55010;BME280;40903;51.638;7.528;2023-10-08T04:26:28;101655.41;;;17.39;100.00
55010;BME280;40903;51.638;7.528;2023-10-08T04:28:54;101656.53;;;17.38;100.00
55010;BME280;40903;51.638;7.528;2023-10-08T04:31:23;101697.56;;;17.40;100.00
55010;BME280;40903;51.638;7.528;2023-10-08T04:34:04;101711.69;;;17.38;100.00
55010;BME280;40903;51.638;7.528;2023-10-08T04:36:45;101713.94;;;17.36;100.00
55010;BME280;40903;51.638;7.528;2023-10-08T04:39:11;101702.09;;;17.36;100.00
55010;BME280;40903;51.638;7.528;2023-10-08T04:41:41;101669.31;;;17.34;100.00
55010;BME280;40903;51.638;7.528;2023-10-08T04:44:11;101669.59;;;17.33;100.00
55010;BME280;40903;51.638;7.528;2023-10-08T04:46:44;101690.31;;;17.30;100.00
55010;BME280;40903;51.638;7.528;2023-10-08T04:49:15;101682.88;;;17.31;100.00
55010;BME280;40903;51.638;7.528;2023-10-08T04:51:59;101662.75;;;17.30;100.00
55010;BME280;40903;51.638;7.528;2023-10-08T04:54:28;101668.91;;;17.27;100.00
55010;BME280;40903;51.638;7.528;2023-10-08T04:56:58;101707.38;;;17.32;100.00
55010;BME280;40903;51.638;7.528;2023-10-08T04:59:26;101727.00;;;17.31;100.00
55010;BME280;40903;51.638;7.528;2023-10-08T05:02:01;101757.63;;;17.29;100.00
55010;BME280;40903;51.638;7.528;2023-10-08T05:04:39;101773.66;;;17.27;100.00
55010;BME280;40903;51.638;7.528;2023-10-08T05:07:18;101775.72;;;17.22;100.00
55010;BME280;40903;51.638;7.528;2023-10-08T05:09:49;101770.53;;;17.20;100.00
55010;BME280;40903;51.638;7.528;2023-10-08T05:12:35;101782.66;;;17.19;100.00
55010;BME280;40903;51.638;7.528;2023-10-08T05:15:12;101770.00;;;17.18;100.00
55010;BME280;40903;51.638;7.528;2023-10-08T05:17:37;101785.72;;;17.18;100.00
55010;BME280;40903;51.638;7.528;2023-10-08T05:20:21;101797.78;;;17.22;100.00
55010;BME280;40903;51.638;7.528;2023-10-08T05:23:10;101794.13;;;17.13;100.00
55010;BME280;40903;51.638;7.528;2023-10-08T05:25:51;101794.72;;;17.10;100.00
55010;BME280;40903;51.638;7.528;2023-10-08T05:28:32;101792.38;;;17.03;100.00
55010;BME280;40903;51.638;7.528;2023-10-08T05:31:07;101793.59;;;16.97;100.00
55010;BME280;40903;51.638;7.528;2023-10-08T05:33:42;101790.97;;;16.92;100.00
55010;BME280;40903;51.638;7.528;2023-10-08T05:36:26;101780.84;;;16.88;100.00
55010;BME280;40903;51.638;7.528;2023-10-08T05:39:10;101776.66;;;16.77;100.00
55010;BME280;40903;51.638;7.528;2023-10-08T05:41:57;101768.41;;;16.63;100.00
55010;BME280;40903;51.638;7.528;2023-10-08T05:44:44;101767.06;;;16.61;100.00
55010;BME280;40903;51.638;7.528;2023-10-08T05:47:36;101766.03;;;16.57;100.00
55010;BME280;40903;51.638;7.528;2023-10-08T05:50:02;101776.84;;;16.53;100.00
55010;BME280;40903;51.638;7.528;2023-10-08T05:52:43;101789.09;;;16.47;100.00
55010;BME280;40903;51.638;7.528;2023-10-08T05:55:30;101797.00;;;16.35;100.00
55010;BME280;40903;51.638;7.528;2023-10-08T05:58:03;101797.75;;;16.22;100.00
55010;BME280;40903;51.638;7.528;2023-10-08T06:00:45;101771.00;;;16.09;100.00
55010;BME280;40903;51.638;7.528;2023-10-08T06:03:14;101776.66;;;15.99;100.00
55010;BME280;40903;51.638;7.528;2023-10-08T06:06:07;101783.66;;;15.92;100.00
55010;BME280;40903;51.638;7.528;2023-10-08T06:08:38;101798.63;;;15.86;100.00
55010;BME280;40903;51.638;7.528;2023-10-08T06:11:25;101813.50;;;15.85;100.00
55010;BME280;40903;51.638;7.528;2023-10-08T06:14:09;101829.88;;;15.77;100.00
55010;BME280;40903;51.638;7.528;2023-10-08T06:17:02;101847.47;;;15.76;100.00
55010;BME280;40903;51.638;7.528;2023-10-08T06:19:50;101854.84;;;15.62;100.00
55010;BME280;40903;51.638;7.528;2023-10-08T06:22:36;101860.09;;;15.58;100.00
55010;BME280;40903;51.638;7.528;2023-10-08T06:25:03;101866.44;;;15.59;100.00
55010;BME280;40903;51.638;7.528;2023-10-08T06:28:03;101885.50;;;15.50;100.00
55010;BME280;40903;51.638;7.528;2023-10-08T06:30:28;101865.50;;;15.45;100.00
55010;BME280;40903;51.638;7.528;2023-10-08T06:33:14;101900.25;;;15.36;100.00
55010;BME280;40903;51.638;7.528;2023-10-08T06:35:40;101875.66;;;15.21;100.00
55010;BME280;40903;51.638;7.528;2023-10-08T06:38:10;101876.31;;;15.13;100.00
55010;BME280;40903;51.638;7.528;2023-10-08T06:40:36;101905.78;;;15.07;100.00
55010;BME280;40903;51.638;7.528;2023-10-08T06:43:03;101907.50;;;14.98;100.00
55010;BME280;40903;51.638;7.528;2023-10-08T06:45:43;101904.31;;;14.91;100.00
55010;BME280;40903;51.638;7.528;2023-10-08T06:48:09;101898.28;;;14.89;100.00
55010;BME280;40903;51.638;7.528;2023-10-08T06:50:43;101914.03;;;14.79;100.00
55010;BME280;40903;51.638;7.528;2023-10-08T06:53:08;101920.09;;;14.76;100.00
55010;BME280;40903;51.638;7.528;2023-10-08T06:55:35;101929.31;;;14.61;100.00
55010;BME280;40903;51.638;7.528;2023-10-08T06:58:03;101925.44;;;14.62;100.00
55010;BME280;40903;51.638;7.528;2023-10-08T07:00:34;101946.88;;;14.60;100.00
55010;BME280;40903;51.638;7.528;2023-10-08T07:03:13;101939.22;;;14.57;100.00
55010;BME280;40903;51.638;7.528;2023-10-08T07:05:49;101930.75;;;14.54;100.00
55010;BME280;40903;51.638;7.528;2023-10-08T07:08:31;101934.59;;;14.48;100.00
55010;BME280;40903;51.638;7.528;2023-10-08T07:10:58;101936.03;;;14.45;100.00
55010;BME280;40903;51.638;7.528;2023-10-08T07:13:30;101944.53;;;14.44;100.00
55010;BME280;40903;51.638;7.528;2023-10-08T07:15:56;101954.19;;;14.36;100.00
55010;BME280;40903;51.638;7.528;2023-10-08T07:18:22;101944.38;;;14.30;100.00
55010;BME280;40903;51.638;7.528;2023-10-08T07:20:51;101944.97;;;14.22;100.00
55010;BME280;40903;51.638;7.528;2023-10-08T07:23:28;101947.16;;;14.20;100.00
55010;BME280;40903;51.638;7.528;2023-10-08T07:25:59;101958.72;;;14.12;100.00
55010;BME280;40903;51.638;7.528;2023-10-08T07:28:39;101959.28;;;14.09;100.00
55010;BME280;40903;51.638;7.528;2023-10-08T07:31:13;101971.13;;;14.05;100.00
55010;BME280;40903;51.638;7.528;2023-10-08T07:33:43;101969.53;;;13.94;100.00
55010;BME280;40903;51.638;7.528;2023-10-08T07:36:10;101961.63;;;13.82;100.00
55010;BME280;40903;51.638;7.528;2023-10-08T07:38:42;101958.59;;;13.84;100.00
55010;BME280;40903;51.638;7.528;2023-10-08T07:41:11;101962.75;;;13.76;100.00
55010;BME280;40903;51.638;7.528;2023-10-08T07:43:41;101972.34;;;13.74;100.00
55010;BME280;40903;51.638;7.528;2023-10-08T07:46:11;101957.56;;;13.75;100.00
55010;BME280;40903;51.638;7.528;2023-10-08T07:48:44;101961.38;;;13.74;100.00
55010;BME280;40903;51.638;7.528;2023-10-08T07:51:09;101981.97;;;13.72;100.00
55010;BME280;40903;51.638;7.528;2023-10-08T07:53:35;101986.34;;;13.73;100.00
55010;BME280;40903;51.638;7.528;2023-10-08T07:56:05;101986.09;;;13.64;100.00
55010;BME280;40903;51.638;7.528;2023-10-08T07:58:32;101979.53;;;13.65;100.00
55010;BME280;40903;51.638;7.528;2023-10-08T08:01:05;101972.66;;;13.63;100.00
55010;BME280;40903;51.638;7.528;2023-10-08T08:03:38;101979.53;;;13.65;100.00
55010;BME280;40903;51.638;7.528;2023-10-08T08:06:04;101982.81;;;13.62;100.00
55010;BME280;40903;51.638;7.528;2023-10-08T08:08:34;101980.31;;;13.66;100.00
55010;BME280;40903;51.638;7.528;2023-10-08T08:11:07;101985.53;;;13.67;100.00
55010;BME280;40903;51.638;7.528;2023-10-08T08:13:40;102011.28;;;13.71;100.00
55010;BME280;40903;51.638;7.528;2023-10-08T08:16:11;102033.50;;;13.70;100.00
55010;BME280;40903;51.638;7.528;2023-10-08T08:18:48;102024.44;;;13.79;100.00
55010;BME280;40903;51.638;7.528;2023-10-08T08:21:14;102030.72;;;13.79;100.00
55010;BME280;40903;51.638;7.528;2023-10-08T08:23:46;102033.47;;;13.79;100.00
55010;BME280;40903;51.638;7.528;2023-10-08T08:26:18;102026.06;;;13.80;100.00
55010;BME280;40903;51.638;7.528;2023-10-08T08:29:00;102032.69;;;13.69;100.00
55010;BME280;40903;51.638;7.528;2023-10-08T08:31:28;102045.31;;;13.65;100.00
55010;BME280;40903;51.638;7.528;2023-10-08T08:33:57;102037.94;;;13.51;100.00
55010;BME280;40903;51.638;7.528;2023-10-08T08:36:30;102038.75;;;13.51;100.00
55010;BME280;40903;51.638;7.528;2023-10-08T08:38:57;102035.47;;;13.49;100.00
55010;BME280;40903;51.638;7.528;2023-10-08T08:41:24;102035.78;;;13.43;100.00
55010;BME280;40903;51.638;7.528;2023-10-08T08:43:54;102036.31;;;13.40;100.00
55010;BME280;40903;51.638;7.528;2023-10-08T08:46:31;102038.78;;;13.36;100.00
55010;BME280;40903;51.638;7.528;2023-10-08T08:49:02;102043.69;;;13.44;100.00
55010;BME280;40903;51.638;7.528;2023-10-08T08:51:29;102052.47;;;13.41;100.00
55010;BME280;40903;51.638;7.528;2023-10-08T08:53:55;102050.56;;;13.47;100.00
55010;BME280;40903;51.638;7.528;2023-10-08T08:56:21;102051.38;;;13.42;100.00
55010;BME280;40903;51.638;7.528;2023-10-08T08:58:49;102044.53;;;13.45;100.00
55010;BME280;40903;51.638;7.528;2023-10-08T09:01:15;102037.69;;;13.47;100.00
55010;BME280;40903;51.638;7.528;2023-10-08T09:03:42;102049.72;;;13.51;100.00
55010;BME280;40903;51.638;7.528;2023-10-08T09:06:08;102057.69;;;13.53;100.00
55010;BME280;40903;51.638;7.528;2023-10-08T09:08:37;102075.50;;;13.50;100.00
55010;BME280;40903;51.638;7.528;2023-10-08T09:11:06;102083.72;;;13.45;100.00
55010;BME280;40903;51.638;7.528;2023-10-08T09:13:34;102101.53;;;13.43;100.00
55010;BME280;40903;51.638;7.528;2023-10-08T09:16:08;102108.38;;;13.50;100.00
55010;BME280;40903;51.638;7.528;2023-10-08T09:18:36;102107.00;;;13.58;100.00
55010;BME280;40903;51.638;7.528;2023-10-08T09:21:11;102114.13;;;13.69;100.00
55010;BME280;40903;51.638;7.528;2023-10-08T09:23:44;102104.22;;;13.82;100.00
55010;BME280;40903;51.638;7.528;2023-10-08T09:26:11;102092.38;;;13.87;100.00
55010;BME280;40903;51.638;7.528;2023-10-08T09:28:40;102088.78;;;14.01;100.00
55010;BME280;40903;51.638;7.528;2023-10-08T09:31:12;102085.72;;;14.13;100.00
55010;BME280;40903;51.638;7.528;2023-10-08T09:33:38;102087.66;;;14.07;100.00
55010;BME280;40903;51.638;7.528;2023-10-08T09:36:04;102095.06;;;14.17;100.00
55010;BME280;40903;51.638;7.528;2023-10-08T09:38:31;102095.06;;;14.22;100.00
55010;BME280;40903;51.638;7.528;2023-10-08T09:40:59;102089.56;;;14.17;100.00
55010;BME280;40903;51.638;7.528;2023-10-08T09:43:27;102079.66;;;14.26;100.00
55010;BME280;40903;51.638;7.528;2023-10-08T09:46:21;102078.50;;;14.42;100.00
55010;BME280;40903;51.638;7.528;2023-10-08T09:48:51;102075.66;;;14.57;100.00
55010;BME280;40903;51.638;7.528;2023-10-08T09:51:20;102068.72;;;14.69;100.00
55010;BME280;40903;51.638;7.528;2023-10-08T09:56:28;102072.75;;;14.82;100.00
55010;BME280;40903;51.638;7.528;2023-10-08T09:58:54;102064.94;;;14.99;100.00
55010;BME280;40903;51.638;7.528;2023-10-08T10:01:20;102066.25;;;15.01;100.00
55010;BME280;40903;51.638;7.528;2023-10-08T10:03:47;102075.28;;;15.12;100.00
55010;BME280;40903;51.638;7.528;2023-10-08T10:06:15;102074.13;;;15.18;100.00
55010;BME280;40903;51.638;7.528;2023-10-08T10:08:43;102073.47;;;15.31;100.00
55010;BME280;40903;51.638;7.528;2023-10-08T10:11:09;102084.94;;;15.38;100.00
55010;BME280;40903;51.638;7.528;2023-10-08T10:13:40;102080.03;;;15.35;100.00
55010;BME280;40903;51.638;7.528;2023-10-08T10:16:06;102088.00;;;15.36;100.00
55010;BME280;40903;51.638;7.528;2023-10-08T10:18:33;102098.69;;;15.38;100.00
55010;BME280;40903;51.638;7.528;2023-10-08T10:23:48;102091.56;;;15.37;100.00
55010;BME280;40903;51.638;7.528;2023-10-08T10:26:25;102094.88;;;15.34;100.00
55010;BME280;40903;51.638;7.528;2023-10-08T10:31:38;102096.25;;;15.36;100.00
55010;BME280;40903;51.638;7.528;2023-10-08T10:34:07;102090.41;;;15.43;100.00
55010;BME280;40903;51.638;7.528;2023-10-08T10:36:37;102096.44;;;15.45;100.00
55010;BME280;40903;51.638;7.528;2023-10-08T10:39:06;102097.03;;;15.42;100.00
55010;BME280;40903;51.638;7.528;2023-10-08T10:41:46;102093.72;;;15.40;100.00
55010;BME280;40903;51.638;7.528;2023-10-08T10:44:16;102090.41;;;15.43;100.00
55010;BME280;40903;51.638;7.528;2023-10-08T10:46:42;102101.31;;;15.53;100.00
55010;BME280;40903;51.638;7.528;2023-10-08T10:49:10;102104.06;;;15.53;100.00
55010;BME280;40903;51.638;7.528;2023-10-08T10:51:55;102110.31;;;15.58;99.02
55010;BME280;40903;51.638;7.528;2023-10-08T10:54:25;102102.84;;;15.64;100.00
55010;BME280;40903;51.638;7.528;2023-10-08T10:56:52;102096.94;;;15.75;100.00
55010;BME280;40903;51.638;7.528;2023-10-08T10:59:34;102098.84;;;15.79;98.73
55010;BME280;40903;51.638;7.528;2023-10-08T11:02:06;102089.19;;;15.82;97.85
55010;BME280;40903;51.638;7.528;2023-10-08T11:04:46;102081.34;;;15.94;98.87
55010;BME280;40903;51.638;7.528;2023-10-08T11:07:19;102069.50;;;15.93;97.93
55010;BME280;40903;51.638;7.528;2023-10-08T11:09:49;102071.09;;;15.99;99.15
55010;BME280;40903;51.638;7.528;2023-10-08T11:12:18;102081.56;;;15.97;95.64
55010;BME280;40903;51.638;7.528;2023-10-08T11:14:48;102083.44;;;16.02;97.70
55010;BME280;40903;51.638;7.528;2023-10-08T11:17:23;102087.56;;;16.04;94.60
55010;BME280;40903;51.638;7.528;2023-10-08T11:19:53;102081.19;;;16.09;97.51
55010;BME280;40903;51.638;7.528;2023-10-08T11:22:18;102088.59;;;16.08;97.06
55010;BME280;40903;51.638;7.528;2023-10-08T11:24:47;102084.72;;;16.09;97.27
55010;BME280;40903;51.638;7.528;2023-10-08T11:27:18;102084.63;;;16.19;97.95
55010;BME280;40903;51.638;7.528;2023-10-08T11:29:55;102074.00;;;16.31;97.37
55010;BME280;40903;51.638;7.528;2023-10-08T11:32:24;102076.00;;;16.49;96.42
55010;BME280;40903;51.638;7.528;2023-10-08T11:35:00;102085.66;;;16.65;94.53
55010;BME280;40903;51.638;7.528;2023-10-08T11:37:32;102074.81;;;16.74;94.15
55010;BME280;40903;51.638;7.528;2023-10-08T11:40:02;102072.69;;;16.84;89.15
55010;BME280;40903;51.638;7.528;2023-10-08T11:42:38;102059.81;;;16.98;92.00
55010;BME280;40903;51.638;7.528;2023-10-08T11:45:04;102061.91;;;17.06;91.70
55010;BME280;40903;51.638;7.528;2023-10-08T11:47:52;102067.44;;;17.20;88.54
55010;BME280;40903;51.638;7.528;2023-10-08T11:50:27;102055.06;;;17.17;88.36
55010;BME280;40903;51.638;7.528;2023-10-08T11:53:00;102055.75;;;17.28;87.67
55010;BME280;40903;51.638;7.528;2023-10-08T11:55:35;102053.13;;;17.36;87.73
55010;BME280;40903;51.638;7.528;2023-10-08T11:58:01;102054.78;;;17.51;88.93
55010;BME280;40903;51.638;7.528;2023-10-08T12:00:36;102047.06;;;17.66;91.10
55010;BME280;40903;51.638;7.528;2023-10-08T12:03:09;102047.44;;;17.73;87.89
55010;BME280;40903;51.638;7.528;2023-10-08T12:05:36;102052.88;;;17.65;84.53
55010;BME280;40903;51.638;7.528;2023-10-08T12:08:02;102069.41;;;17.51;82.02
55010;BME280;40903;51.638;7.528;2023-10-08T12:10:27;102060.31;;;17.32;85.06
55010;BME280;40903;51.638;7.528;2023-10-08T12:12:56;102060.03;;;17.34;85.68
55010;BME280;40903;51.638;7.528;2023-10-08T12:15:25;102053.94;;;17.37;86.59
55010;BME280;40903;51.638;7.528;2023-10-08T12:17:59;102055.19;;;17.44;86.28
55010;BME280;40903;51.638;7.528;2023-10-08T12:20:37;102052.13;;;17.46;86.39
55010;BME280;40903;51.638;7.528;2023-10-08T12:23:04;102042.44;;;17.62;86.80
55010;BME280;40903;51.638;7.528;2023-10-08T12:25:30;102036.19;;;17.70;85.12
55010;BME280;40903;51.638;7.528;2023-10-08T12:28:00;102033.88;;;17.77;85.35
55010;BME280;40903;51.638;7.528;2023-10-08T12:30:32;102032.75;;;17.78;83.22
55010;BME280;40903;51.638;7.528;2023-10-08T12:32:58;102014.94;;;17.83;84.62
55010;BME280;40903;51.638;7.528;2023-10-08T12:35:24;102018.22;;;17.72;82.94
55010;BME280;40903;51.638;7.528;2023-10-08T12:37:50;102013.84;;;17.71;84.37
55010;BME280;40903;51.638;7.528;2023-10-08T12:40:16;102017.28;;;17.63;83.79
55010;BME280;40903;51.638;7.528;2023-10-08T12:42:56;102014.84;;;17.62;84.46
55010;BME280;40903;51.638;7.528;2023-10-08T12:45:24;102008.09;;;17.68;83.80
55010;BME280;40903;51.638;7.528;2023-10-08T12:47:52;102004.63;;;17.62;82.74
55010;BME280;40903;51.638;7.528;2023-10-08T12:50:21;102000.03;;;17.71;84.05
55010;BME280;40903;51.638;7.528;2023-10-08T12:52:57;102000.34;;;17.70;84.10
55010;BME280;40903;51.638;7.528;2023-10-08T12:55:29;102009.13;;;17.72;83.61
55010;BME280;40903;51.638;7.528;2023-10-08T12:57:56;101995.03;;;17.73;83.55
55010;BME280;40903;51.638;7.528;2023-10-08T13:00:31;101997.88;;;17.82;83.01
55010;BME280;40903;51.638;7.528;2023-10-08T13:02:56;102003.31;;;17.73;84.67
55010;BME280;40903;51.638;7.528;2023-10-08T13:05:23;101998.50;;;17.79;82.71
55010;BME280;40903;51.638;7.528;2023-10-08T13:07:56;101991.75;;;17.84;85.68
55010;BME280;40903;51.638;7.528;2023-10-08T13:10:25;101986.44;;;17.88;85.67
55010;BME280;40903;51.638;7.528;2023-10-08T13:12:51;101974.88;;;17.86;84.05